Time;durP1;ratioP1;P1;durP2;ratioP2;P2;SDS_P1;SDS_P2;PMS_P1;PMS_P2;Temp;Humidity;BMP_temperature;BMP_pressure;BME280_temperature;BME280_humidity;BME280_pressure;Samples;Min_cycle;Max_cycle;Signal;HPM_P1;HPM_P2
2021/12/23 00:01:20;;;;;;;64.65;32.88;;;-2.60;99.90;;;;;;5069790;28;20080;-35
2021/12/23 00:03:46;;;;;;;58.28;30.73;;;-2.60;99.90;;;;;;5069947;28;20504;-35
2021/12/23 00:06:12;;;;;;;57.22;29.27;;;-2.60;99.90;;;;;;5069617;28;20041;-35
2021/12/23 00:08:37;;;;;;;64.32;32.63;;;-2.60;99.90;;;;;;5069952;28;20036;-35
2021/12/23 00:11:03;;;;;;;52.15;28.58;;;-2.60;99.90;;;;;;5069987;28;20040;-35
2021/12/23 00:13:29;;;;;;;51.58;28.92;;;-2.60;99.90;;;;;;5069764;28;20360;-35
2021/12/23 00:23:48;;;;;;;55.80;29.77;;;-2.60;99.90;;;;;;5070033;28;20119;-35
2021/12/23 00:26:14;;;;;;;51.55;28.10;;;-2.60;99.90;;;;;;5069391;28;20435;-35
2021/12/23 00:28:40;;;;;;;52.50;29.73;;;-2.60;99.90;;;;;;5069912;28;20134;-35
2021/12/23 00:31:06;;;;;;;51.83;28.88;;;-2.50;99.90;;;;;;5069126;28;20502;-35
2021/12/23 00:33:35;;;;;;;59.30;31.40;;;-2.50;99.90;;;;;;5069631;28;20086;-35
2021/12/23 00:36:03;;;;;;;54.53;29.73;;;-2.50;99.90;;;;;;5069039;28;20039;-35
2021/12/23 00:38:33;;;;;;;61.70;31.67;;;-2.40;99.90;;;;;;5069164;28;20101;-35
2021/12/23 00:41:01;;;;;;;62.63;31.15;;;-2.40;99.90;;;;;;5069223;28;20123;-35
2021/12/23 00:43:27;;;;;;;57.47;30.05;;;-2.40;99.90;;;;;;5069083;28;20105;-35
2021/12/23 00:45:53;;;;;;;60.13;31.08;;;-2.40;99.90;;;;;;5069304;28;20128;-35
2021/12/23 00:48:18;;;;;;;59.50;31.38;;;-2.30;99.90;;;;;;5067519;28;20116;-35
2021/12/23 00:50:46;;;;;;;57.13;29.05;;;-2.30;99.90;;;;;;5069164;28;20518;-35
2021/12/23 00:53:16;;;;;;;57.67;29.58;;;-2.30;99.90;;;;;;5069162;28;20036;-35
2021/12/23 00:55:42;;;;;;;53.13;28.92;;;-2.30;99.90;;;;;;5069046;28;20048;-35
2021/12/23 00:58:08;;;;;;;66.55;33.28;;;-2.20;99.90;;;;;;5069175;28;20048;-35
2021/12/23 01:00:34;;;;;;;59.90;30.75;;;-2.20;99.90;;;;;;5066814;28;20044;-35
2021/12/23 01:03:00;;;;;;;58.25;30.80;;;-2.30;99.90;;;;;;5069362;28;20035;-35
2021/12/23 01:05:27;;;;;;;60.97;31.27;;;-2.20;99.90;;;;;;5068868;28;20127;-35
2021/12/23 01:07:53;;;;;;;57.38;31.27;;;-2.20;99.90;;;;;;5069335;28;20048;-35
2021/12/23 01:10:20;;;;;;;59.58;32.17;;;-2.20;99.90;;;;;;5068750;28;20094;-35
2021/12/23 01:12:53;;;;;;;53.65;30.52;;;-2.20;99.90;;;;;;5068874;28;20076;-35
2021/12/23 01:17:55;;;;;;;57.55;30.52;;;-2.10;99.90;;;;;;5069102;28;20185;-35
2021/12/23 01:20:29;;;;;;;54.55;28.95;;;-2.10;99.90;;;;;;5067568;28;20052;-35
2021/12/23 01:22:58;;;;;;;59.45;31.73;;;-2.10;99.90;;;;;;5069067;28;20048;-35
2021/12/23 01:25:24;;;;;;;56.10;30.05;;;-2.10;99.90;;;;;;5069013;28;20048;-35
2021/12/23 01:27:50;;;;;;;59.42;28.80;;;-2.10;99.90;;;;;;5069294;28;20044;-35
2021/12/23 01:30:17;;;;;;;51.90;30.08;;;-2.00;99.90;;;;;;5068677;28;20061;-35
2021/12/23 01:32:48;;;;;;;56.83;30.02;;;-2.00;99.90;;;;;;5068590;28;20080;-35
2021/12/23 01:35:15;;;;;;;60.90;30.52;;;-2.00;99.90;;;;;;5069227;28;20093;-35
2021/12/23 01:37:41;;;;;;;54.55;29.52;;;-2.00;99.90;;;;;;5069038;28;20051;-35
2021/12/23 01:40:09;;;;;;;60.25;32.25;;;-2.00;99.90;;;;;;5067319;28;20040;-35
2021/12/23 01:42:35;;;;;;;54.38;29.35;;;-1.90;99.90;;;;;;5068447;28;20593;-35
2021/12/23 01:45:02;;;;;;;56.55;30.50;;;-1.90;99.90;;;;;;5068642;28;20087;-35
2021/12/23 01:47:29;;;;;;;59.88;30.90;;;-1.80;99.90;;;;;;5070301;28;20085;-35
2021/12/23 01:49:55;;;;;;;57.58;31.85;;;-1.90;99.90;;;;;;5072629;28;20066;-35
2021/12/23 01:52:21;;;;;;;60.65;29.65;;;-1.80;99.90;;;;;;5072416;28;20115;-35
2021/12/23 01:54:47;;;;;;;47.65;26.90;;;-1.80;99.90;;;;;;5072682;28;20422;-35
2021/12/23 01:57:12;;;;;;;58.17;31.73;;;-1.80;99.90;;;;;;5072641;28;20047;-35
2021/12/23 01:59:39;;;;;;;53.80;29.83;;;-1.80;99.90;;;;;;5072355;28;20083;-35
2021/12/23 02:02:05;;;;;;;51.13;28.70;;;-1.80;99.90;;;;;;5070538;28;20076;-35
2021/12/23 02:04:30;;;;;;;56.60;30.02;;;-1.80;99.90;;;;;;5072303;28;20090;-36
2021/12/23 02:06:56;;;;;;;50.42;26.83;;;-1.80;99.90;;;;;;5072360;28;20458;-35
2021/12/23 02:09:22;;;;;;;54.45;30.38;;;-1.70;99.90;;;;;;5072423;28;20040;-35
2021/12/23 02:11:48;;;;;;;59.92;30.90;;;-1.70;99.90;;;;;;5072190;28;20111;-35
2021/12/23 02:14:13;;;;;;;57.00;29.33;;;-1.70;99.90;;;;;;5071935;28;20066;-35
2021/12/23 02:16:39;;;;;;;52.13;28.85;;;-1.70;99.90;;;;;;5072260;28;20078;-35
2021/12/23 02:19:17;;;;;;;47.50;28.08;;;-1.70;99.90;;;;;;5072036;28;20464;-35
2021/12/23 02:21:47;;;;;;;54.85;28.92;;;-1.70;99.90;;;;;;5071554;28;20036;-35
2021/12/23 02:24:13;;;;;;;48.50;25.95;;;-1.70;99.90;;;;;;5071821;28;20029;-35
2021/12/23 02:26:40;;;;;;;52.70;28.77;;;-1.70;99.90;;;;;;5072004;28;20098;-35
2021/12/23 02:29:06;;;;;;;49.97;28.58;;;-1.70;99.90;;;;;;5072289;28;20048;-35
2021/12/23 02:31:32;;;;;;;49.50;27.65;;;-1.70;99.90;;;;;;5071281;28;20471;-36
2021/12/23 02:33:59;;;;;;;51.10;27.83;;;-1.80;99.90;;;;;;5071763;28;20072;-35
2021/12/23 02:36:26;;;;;;;50.88;27.67;;;-1.70;99.90;;;;;;5071767;28;20505;-35
2021/12/23 02:38:53;;;;;;;47.05;27.08;;;-1.70;99.90;;;;;;5071449;28;20044;-35
2021/12/23 02:41:19;;;;;;;50.55;26.25;;;-1.70;99.90;;;;;;5071523;28;20087;-35
2021/12/23 02:43:45;;;;;;;49.45;27.20;;;-1.70;99.90;;;;;;5071733;28;20041;-35
2021/12/23 02:46:11;;;;;;;54.47;29.55;;;-1.80;99.90;;;;;;5071656;28;20102;-35
2021/12/23 02:48:38;;;;;;;50.65;28.52;;;-1.80;99.90;;;;;;5071350;28;20040;-35
2021/12/23 02:51:07;;;;;;;51.10;27.58;;;-1.80;99.90;;;;;;5071660;28;20036;-35
2021/12/23 02:53:33;;;;;;;50.08;27.38;;;-1.80;99.90;;;;;;5071535;28;20041;-35
2021/12/23 02:56:05;;;;;;;48.80;27.05;;;-1.80;99.90;;;;;;5071258;28;20055;-35
2021/12/23 02:58:31;;;;;;;52.55;28.13;;;-1.80;99.90;;;;;;5070512;28;20216;-35
2021/12/23 03:00:59;;;;;;;53.78;28.42;;;-1.80;99.90;;;;;;5069246;28;20095;-35
2021/12/23 03:03:25;;;;;;;51.90;28.60;;;-1.80;99.90;;;;;;5071224;28;20048;-35
2021/12/23 03:05:53;;;;;;;49.78;28.30;;;-1.80;99.90;;;;;;5069359;28;20406;-35
2021/12/23 03:08:39;;;;;;;52.03;28.58;;;-1.80;99.90;;;;;;5071299;28;20124;-35
2021/12/23 03:11:07;;;;;;;52.80;28.05;;;-1.80;99.90;;;;;;5071069;28;20032;-35
2021/12/23 03:13:33;;;;;;;50.20;27.25;;;-1.80;99.90;;;;;;5071022;28;20098;-35
2021/12/23 03:16:00;;;;;;;51.90;28.00;;;-1.80;99.90;;;;;;5070639;28;20052;-35
2021/12/23 03:18:26;;;;;;;55.58;29.02;;;-1.80;99.90;;;;;;5071371;28;20047;-35
2021/12/23 03:20:52;;;;;;;49.80;27.73;;;-1.80;99.90;;;;;;5071158;28;20101;-35
2021/12/23 03:23:18;;;;;;;50.70;28.10;;;-1.80;99.90;;;;;;5071421;28;20040;-35
2021/12/23 03:25:44;;;;;;;59.03;30.40;;;-1.80;99.90;;;;;;5071609;28;20438;-35
2021/12/23 03:28:10;;;;;;;56.22;28.80;;;-1.80;99.90;;;;;;5070977;28;20499;-35
2021/12/23 03:30:36;;;;;;;49.45;28.02;;;-1.80;99.90;;;;;;5071029;28;20082;-35
2021/12/23 03:33:02;;;;;;;50.95;28.88;;;-1.80;99.90;;;;;;5070643;28;20151;-35
2021/12/23 03:35:28;;;;;;;56.75;30.10;;;-1.80;99.90;;;;;;5070889;28;20072;-35
2021/12/23 03:37:54;;;;;;;48.22;27.92;;;-1.80;99.90;;;;;;5070367;28;20099;-35
2021/12/23 03:40:21;;;;;;;51.20;27.45;;;-1.80;99.90;;;;;;5071244;28;20063;-35
2021/12/23 03:42:47;;;;;;;52.60;27.55;;;-1.80;99.90;;;;;;5070512;28;20046;-35
2021/12/23 03:45:12;;;;;;;50.35;28.08;;;-1.80;99.90;;;;;;5070715;28;20123;-35
2021/12/23 03:47:39;;;;;;;52.78;28.48;;;-1.80;99.90;;;;;;5070897;28;20041;-35
2021/12/23 03:50:07;;;;;;;54.95;30.55;;;-1.80;99.90;;;;;;5070386;28;20072;-35
2021/12/23 03:52:33;;;;;;;47.88;26.48;;;-1.80;99.90;;;;;;5070961;28;20041;-35
2021/12/23 03:54:59;;;;;;;50.92;29.20;;;-1.80;99.90;;;;;;5070452;28;20483;-35
2021/12/23 03:57:25;;;;;;;51.47;28.40;;;-1.80;99.90;;;;;;5070313;28;20052;-35
2021/12/23 03:59:51;;;;;;;46.58;26.33;;;-1.70;99.90;;;;;;5070033;28;20102;-35
2021/12/23 04:02:16;;;;;;;48.88;25.88;;;-1.70;99.90;;;;;;5068644;28;20437;-35
2021/12/23 04:04:42;;;;;;;50.70;27.88;;;-1.70;99.90;;;;;;5070355;28;20114;-36
2021/12/23 04:07:08;;;;;;;47.08;27.52;;;-1.70;99.90;;;;;;5069986;28;20036;-35
2021/12/23 04:09:34;;;;;;;48.80;28.23;;;-1.70;99.90;;;;;;5069769;28;20079;-35
2021/12/23 04:11:59;;;;;;;50.65;27.10;;;-1.70;99.90;;;;;;5069122;28;20043;-35
2021/12/23 04:14:25;;;;;;;51.80;28.05;;;-1.70;99.90;;;;;;5069944;28;20049;-35
2021/12/23 04:16:51;;;;;;;50.05;28.55;;;-1.70;99.90;;;;;;5069888;28;20044;-35
2021/12/23 04:19:17;;;;;;;47.40;26.05;;;-1.70;99.90;;;;;;5069892;28;20063;-35
2021/12/23 04:21:42;;;;;;;50.72;28.05;;;-1.70;99.90;;;;;;5069922;28;20576;-35
2021/12/23 04:24:09;;;;;;;50.85;28.15;;;-1.70;99.90;;;;;;5069435;28;20056;-35
2021/12/23 04:26:37;;;;;;;54.08;29.83;;;-1.70;99.90;;;;;;5069772;28;20115;-35
2021/12/23 04:29:04;;;;;;;54.75;28.75;;;-1.70;99.90;;;;;;5069418;28;20048;-35
2021/12/23 04:31:29;;;;;;;51.35;28.48;;;-1.70;99.90;;;;;;5069634;28;20754;-35
2021/12/23 04:33:55;;;;;;;50.17;27.83;;;-1.70;99.90;;;;;;5069480;28;20048;-35
2021/12/23 04:36:26;;;;;;;54.65;29.15;;;-1.70;99.90;;;;;;5069663;28;20486;-35
2021/12/23 04:38:52;;;;;;;56.30;28.77;;;-1.10;99.90;;;;;;5069079;28;20047;-35
2021/12/23 04:41:18;;;;;;;53.85;29.40;;;-1.70;99.90;;;;;;5069185;28;20040;-35
2021/12/23 04:43:43;;;;;;;57.92;30.20;;;-1.60;99.90;;;;;;5069700;28;20374;-35
2021/12/23 04:46:10;;;;;;;54.47;30.80;;;-1.60;99.90;;;;;;5069093;28;20130;-35
2021/12/23 04:48:48;;;;;;;51.03;29.52;;;-1.60;99.90;;;;;;5069519;28;20044;-35
2021/12/23 04:51:15;;;;;;;53.40;28.67;;;-1.60;99.90;;;;;;5069128;28;20068;-35
2021/12/23 04:53:42;;;;;;;50.40;28.48;;;-1.60;99.90;;;;;;5067756;28;20040;-35
2021/12/23 04:56:07;;;;;;;50.88;28.05;;;-1.60;99.90;;;;;;5068701;28;20048;-35
2021/12/23 04:58:33;;;;;;;49.80;27.05;;;-1.60;99.90;;;;;;5069116;28;20591;-35
2021/12/23 05:00:59;;;;;;;48.90;27.90;;;-1.60;99.90;;;;;;5067276;28;20045;-35
2021/12/23 05:03:25;;;;;;;49.47;28.60;;;-1.50;99.90;;;;;;5069116;28;20056;-35
2021/12/23 05:05:52;;;;;;;49.95;28.15;;;-1.50;99.90;;;;;;5069490;28;20099;-35
2021/12/23 05:08:18;;;;;;;59.83;30.63;;;-1.50;99.90;;;;;;5069086;28;20032;-35
2021/12/23 05:10:45;;;;;;;58.92;31.13;;;-1.50;99.90;;;;;;5069084;28;20044;-35
2021/12/23 05:13:11;;;;;;;47.50;28.33;;;-1.50;99.90;;;;;;5068925;28;20036;-35
2021/12/23 05:15:37;;;;;;;53.05;30.02;;;-1.50;99.90;;;;;;5069404;28;20055;-35
2021/12/23 05:18:04;;;;;;;55.30;29.42;;;-1.50;99.90;;;;;;5051850;28;20071;-33
2021/12/23 05:20:30;;;;;;;56.22;31.10;;;-1.50;99.90;;;;;;5064633;28;20056;-35
2021/12/23 05:22:56;;;;;;;51.53;28.48;;;-1.50;99.90;;;;;;5067455;28;20032;-39
2021/12/23 05:25:22;;;;;;;53.60;28.45;;;-1.50;99.90;;;;;;5075868;28;20081;-56
2021/12/23 05:27:52;;;;;;;50.47;29.35;;;-1.60;99.90;;;;;;5076486;28;20032;-52
2021/12/23 05:30:18;;;;;;;53.78;29.27;;;-0.70;99.90;;;;;;5076710;28;20048;-48
2021/12/23 05:32:45;;;;;;;52.47;29.15;;;-1.50;99.90;;;;;;5080308;28;20507;-47
2021/12/23 05:35:12;;;;;;;60.10;29.50;;;-1.50;99.90;;;;;;5074282;28;20071;-46
2021/12/23 05:37:39;;;;;;;54.53;30.13;;;-1.40;99.90;;;;;;5079441;28;20049;-50
2021/12/23 05:40:09;;;;;;;47.75;27.48;;;-1.40;99.90;;;;;;5074659;28;20036;-42
2021/12/23 05:42:35;;;;;;;55.70;30.52;;;-1.40;99.90;;;;;;5073977;28;20043;-42
2021/12/23 05:45:00;;;;;;;54.60;27.20;;;-1.40;99.90;;;;;;5073066;28;20044;-41
2021/12/23 05:47:26;;;;;;;53.45;28.65;;;-0.90;99.90;;;;;;5074392;28;20032;-43
2021/12/23 05:49:52;;;;;;;54.88;28.90;;;-1.40;99.90;;;;;;5074987;28;20541;-42
2021/12/23 05:52:18;;;;;;;56.50;29.08;;;-1.40;99.90;;;;;;5072679;28;20390;-42
2021/12/23 05:54:43;;;;;;;58.45;30.58;;;-1.40;99.90;;;;;;5076411;28;20032;-43
2021/12/23 05:57:09;;;;;;;54.85;31.00;;;-1.40;99.90;;;;;;5078082;28;20836;-43
2021/12/23 05:59:36;;;;;;;51.78;28.55;;;-1.40;99.90;;;;;;5072807;28;20031;-42
2021/12/23 06:02:06;;;;;;;56.60;27.83;;;-1.30;99.90;;;;;;5074491;28;20032;-40
2021/12/23 06:04:33;;;;;;;56.63;28.25;;;-1.30;99.90;;;;;;5069696;28;20082;-36
2021/12/23 06:06:59;;;;;;;56.75;29.65;;;-1.30;99.90;;;;;;5068449;28;20060;-36
2021/12/23 06:09:25;;;;;;;52.65;29.75;;;-1.30;99.90;;;;;;5068505;28;20045;-36
2021/12/23 06:11:50;;;;;;;54.80;30.35;;;-1.30;99.90;;;;;;5068480;28;20381;-36
2021/12/23 06:14:16;;;;;;;48.45;28.20;;;-1.30;99.90;;;;;;5067873;28;20127;-36
2021/12/23 06:16:43;;;;;;;53.22;30.67;;;-1.30;99.90;;;;;;5068461;28;20037;-36
2021/12/23 06:19:09;;;;;;;55.22;30.05;;;-1.30;99.90;;;;;;5067773;28;20049;-36
2021/12/23 06:21:35;;;;;;;54.40;28.17;;;-1.30;99.90;;;;;;5068125;28;20398;-36
2021/12/23 06:24:03;;;;;;;60.95;31.92;;;-1.30;99.90;;;;;;5068071;28;20501;-36
2021/12/23 06:26:30;;;;;;;55.08;31.02;;;-1.30;99.90;;;;;;5068024;28;20117;-36
2021/12/23 06:28:57;;;;;;;54.10;30.33;;;-1.30;99.90;;;;;;5068108;28;20048;-37
2021/12/23 06:31:23;;;;;;;58.35;30.80;;;-1.30;99.90;;;;;;5067757;28;20057;-36
2021/12/23 06:33:49;;;;;;;55.33;30.67;;;-1.20;99.90;;;;;;5068814;28;20476;-36
2021/12/23 06:36:15;;;;;;;56.05;30.92;;;-1.20;99.90;;;;;;5071519;28;20804;-36
2021/12/23 06:38:41;;;;;;;57.45;30.70;;;-1.20;99.90;;;;;;5072112;28;20045;-36
2021/12/23 06:41:08;;;;;;;58.13;31.98;;;-1.20;99.90;;;;;;5072026;28;20051;-36
2021/12/23 06:43:34;;;;;;;52.75;28.77;;;-1.20;99.90;;;;;;5071876;28;20040;-36
2021/12/23 06:46:00;;;;;;;57.45;30.58;;;-1.20;99.90;;;;;;5071614;28;20044;-36
2021/12/23 06:48:26;;;;;;;55.65;30.70;;;-1.30;99.90;;;;;;5071377;28;20137;-36
2021/12/23 06:50:54;;;;;;;53.67;30.02;;;-1.20;99.90;;;;;;5071532;28;20074;-36
2021/12/23 06:53:20;;;;;;;56.80;31.27;;;-1.20;99.90;;;;;;5070011;28;20367;-36
2021/12/23 06:55:46;;;;;;;56.55;31.45;;;-1.20;99.90;;;;;;5071382;28;20044;-36
2021/12/23 06:58:11;;;;;;;58.70;32.38;;;-1.10;99.90;;;;;;5071091;28;20044;-36
2021/12/23 07:00:37;;;;;;;59.08;29.63;;;-1.10;99.90;;;;;;5069635;28;20055;-36
2021/12/23 07:03:03;;;;;;;68.63;31.25;;;-1.10;99.90;;;;;;5071492;28;20124;-36
2021/12/23 07:05:29;;;;;;;68.65;31.88;;;-1.10;99.90;;;;;;5070708;28;20049;-36
2021/12/23 07:07:57;;;;;;;58.85;31.40;;;-1.10;99.90;;;;;;5071130;28;20043;-36
2021/12/23 07:10:29;;;;;;;58.55;29.63;;;-1.10;99.90;;;;;;5071102;28;20206;-36
2021/12/23 07:12:55;;;;;;;63.63;32.47;;;-1.10;99.90;;;;;;5071299;28;20129;-36
2021/12/23 07:15:23;;;;;;;58.05;32.47;;;-0.70;99.90;;;;;;5070660;28;20580;-36
2021/12/23 07:17:50;;;;;;;55.72;30.63;;;-0.70;99.90;;;;;;5070952;28;20055;-36
2021/12/23 07:20:16;;;;;;;59.78;32.63;;;-1.10;99.90;;;;;;5070709;28;20048;-36
2021/12/23 07:22:42;;;;;;;57.13;30.52;;;-1.00;99.90;;;;;;5070835;28;20090;-36
2021/12/23 07:25:08;;;;;;;59.75;31.77;;;-1.10;99.90;;;;;;5070636;28;20079;-36
2021/12/23 07:27:34;;;;;;;63.40;33.00;;;-1.10;99.90;;;;;;5070626;28;20051;-36
2021/12/23 07:30:00;;;;;;;61.92;33.45;;;-1.10;99.90;;;;;;5070875;28;20044;-36
2021/12/23 07:32:26;;;;;;;62.22;27.65;;;-1.10;99.90;;;;;;5070230;28;20182;-36
2021/12/23 07:34:52;;;;;;;58.65;30.20;;;-1.10;99.90;;;;;;5070696;28;20123;-36
2021/12/23 07:37:18;;;;;;;56.75;31.60;;;-1.10;99.90;;;;;;5070420;28;20757;-36
2021/12/23 07:39:44;;;;;;;64.90;32.83;;;-1.10;99.90;;;;;;5070319;28;20068;-36
2021/12/23 07:42:15;;;;;;;60.70;31.05;;;-1.10;99.90;;;;;;5070364;28;20037;-36
2021/12/23 07:44:44;;;;;;;61.97;31.95;;;-1.10;99.90;;;;;;5069957;28;20120;-36
2021/12/23 07:47:14;;;;;;;64.30;32.97;;;-1.10;99.90;;;;;;5070387;28;20324;-36
2021/12/23 07:49:41;;;;;;;63.28;33.30;;;-1.10;99.90;;;;;;5069918;28;20049;-36
2021/12/23 07:52:07;;;;;;;68.45;34.97;;;-1.10;99.90;;;;;;5070333;28;20040;-36
2021/12/23 07:54:34;;;;;;;62.47;34.13;;;-1.10;99.90;;;;;;5069944;28;20036;-36
2021/12/23 07:57:00;;;;;;;57.45;32.90;;;-1.10;99.90;;;;;;5070114;28;20040;-36
2021/12/23 07:59:28;;;;;;;65.95;37.40;;;-1.10;99.90;;;;;;5069912;28;20517;-36
2021/12/23 08:01:57;;;;;;;61.42;33.65;;;-1.10;99.90;;;;;;5068114;28;20052;-36
2021/12/23 08:04:23;;;;;;;60.30;31.77;;;-1.10;99.90;;;;;;5069774;28;20086;-36
2021/12/23 08:06:55;;;;;;;61.40;34.30;;;-1.10;99.90;;;;;;5069724;28;20067;-36
2021/12/23 08:09:24;;;;;;;62.58;33.28;;;-1.20;99.90;;;;;;5068682;28;20098;-36
2021/12/23 08:11:51;;;;;;;63.25;34.13;;;-1.20;99.90;;;;;;5069827;28;20149;-36
2021/12/23 08:14:17;;;;;;;73.05;35.28;;;-1.10;99.90;;;;;;5070027;28;20074;-36
2021/12/23 08:16:43;;;;;;;69.95;37.20;;;-1.10;99.90;;;;;;5069781;28;20071;-36
2021/12/23 08:19:10;;;;;;;57.95;27.98;;;-1.20;99.90;;;;;;5069921;28;20462;-36
2021/12/23 08:21:36;;;;;;;61.53;34.53;;;-1.10;99.90;;;;;;5069065;28;20040;-36
2021/12/23 08:24:02;;;;;;;68.07;33.72;;;-1.10;99.90;;;;;;5069180;28;20401;-36
2021/12/23 08:26:29;;;;;;;60.13;30.65;;;-1.10;99.90;;;;;;5069311;28;20035;-36
2021/12/23 08:28:56;;;;;;;65.63;35.15;;;-1.10;99.90;;;;;;5069433;28;20047;-36
2021/12/23 08:31:23;;;;;;;75.65;34.55;;;-1.10;99.90;;;;;;5069789;28;20470;-36
2021/12/23 08:33:50;;;;;;;63.55;31.33;;;-1.00;99.90;;;;;;5069443;28;20131;-36
2021/12/23 08:36:16;;;;;;;72.03;37.03;;;-1.00;99.90;;;;;;5069384;28;20036;-36
2021/12/23 08:38:43;;;;;;;66.07;37.20;;;-1.00;99.90;;;;;;5068737;28;20048;-35
2021/12/23 08:41:09;;;;;;;65.13;33.28;;;-1.00;99.90;;;;;;5038195;28;20427;-45
2021/12/23 08:43:35;;;;;;;67.20;37.65;;;-1.00;99.90;;;;;;5051645;28;20040;-46
2021/12/23 08:46:02;;;;;;;68.53;37.53;;;-1.00;99.90;;;;;;5063239;28;20595;-45
2021/12/23 08:48:27;;;;;;;70.75;36.42;;;-0.90;99.90;;;;;;5046581;28;20068;-46
2021/12/23 08:50:53;;;;;;;63.33;35.20;;;-0.90;99.90;;;;;;5046486;28;20372;-45
2021/12/23 08:53:19;;;;;;;68.00;32.10;;;-0.30;99.90;;;;;;5046102;28;20116;-44
2021/12/23 08:55:45;;;;;;;67.55;32.50;;;-0.90;99.90;;;;;;5046054;28;20119;-36
2021/12/23 08:58:11;;;;;;;70.35;35.55;;;-0.90;99.90;;;;;;5045591;28;20044;-44
2021/12/23 09:00:38;;;;;;;73.85;35.33;;;-0.90;99.90;;;;;;5050820;28;20032;-44
2021/12/23 09:03:07;;;;;;;72.72;35.75;;;-0.80;99.90;;;;;;5066071;28;20044;-46
2021/12/23 09:05:35;;;;;;;71.00;36.05;;;-0.80;99.90;;;;;;5065939;28;20044;-45
2021/12/23 09:08:00;;;;;;;71.63;36.92;;;-0.80;99.90;;;;;;5066061;28;20485;-45
2021/12/23 09:10:26;;;;;;;73.70;37.85;;;-0.80;99.90;;;;;;5066053;28;20032;-44
2021/12/23 09:12:52;;;;;;;67.75;33.97;;;-0.70;99.90;;;;;;5064577;28;20044;-44
2021/12/23 09:15:19;;;;;;;65.25;34.20;;;-0.80;99.90;;;;;;5048964;28;20107;-44
2021/12/23 09:17:45;;;;;;;80.68;37.38;;;-0.70;99.90;;;;;;5045811;28;20064;-45
2021/12/23 09:20:15;;;;;;;76.10;35.53;;;-0.70;99.90;;;;;;5046075;28;20040;-44
2021/12/23 09:22:41;;;;;;;78.55;39.75;;;-0.70;99.90;;;;;;5045904;28;20053;-44
2021/12/23 09:25:12;;;;;;;81.15;41.63;;;-0.70;99.90;;;;;;5045904;28;20045;-45
2021/12/23 09:28:05;;;;;;;88.93;42.22;;;-0.60;99.90;;;;;;5045417;28;20498;-45
2021/12/23 09:33:14;;;;;;;81.70;40.92;;;-0.60;99.90;;;;;;5046036;28;20049;-36
2021/12/23 09:35:40;;;;;;;83.57;39.58;;;-0.60;99.90;;;;;;5045687;28;20041;-37
2021/12/23 09:38:07;;;;;;;89.80;42.30;;;-0.50;99.90;;;;;;5046251;28;20110;-37
2021/12/23 09:40:34;;;;;;;94.20;43.03;;;-0.60;99.90;;;;;;5045696;28;20491;-36
2021/12/23 09:43:08;;;;;;;94.38;45.33;;;-0.50;99.90;;;;;;5036975;28;20063;-36
2021/12/23 09:45:36;;;;;;;95.38;43.15;;;-0.50;99.90;;;;;;5045438;28;20041;-36
2021/12/23 09:48:02;;;;;;;95.07;44.40;;;-0.50;99.90;;;;;;5045918;28;20395;-36
2021/12/23 09:50:32;;;;;;;103.22;46.13;;;-0.40;99.90;;;;;;5045622;28;20475;-36
2021/12/23 09:53:00;;;;;;;102.63;45.58;;;-0.40;99.90;;;;;;5046068;28;20083;-37
2021/12/23 09:55:27;;;;;;;105.10;46.70;;;-0.40;99.90;;;;;;5054662;28;20605;-36
2021/12/23 09:57:55;;;;;;;110.72;43.53;;;-0.40;99.90;;;;;;5065085;28;20040;-36
2021/12/23 10:00:26;;;;;;;104.95;44.13;;;-0.30;99.90;;;;;;5065431;28;20045;-36
2021/12/23 10:02:52;;;;;;;118.38;52.65;;;-0.30;99.90;;;;;;5050527;28;20083;-37
2021/12/23 10:05:22;;;;;;;127.13;50.33;;;-0.30;99.90;;;;;;5055818;28;20044;-37
2021/12/23 10:07:49;;;;;;;117.80;48.97;;;-0.30;99.90;;;;;;5044987;28;20037;-38
2021/12/23 10:13:18;;;;;;;133.45;53.67;;;-0.30;99.90;;;;;;5069242;28;20040;-38
2021/12/23 10:38:20;;;;;;;146.00;51.72;;;-0.10;99.90;;;;;;5068225;28;20078;-38
2021/12/23 10:40:53;;;;;;;139.05;52.55;;;-0.10;99.90;;;;;;5068806;28;20055;-38
2021/12/23 10:43:27;;;;;;;148.85;55.58;;;-0.10;99.90;;;;;;5066292;28;20123;-37
2021/12/23 10:45:57;;;;;;;146.77;52.08;;;1.00;99.90;;;;;;5068066;28;20048;-37
2021/12/23 10:48:30;;;;;;;144.63;49.42;;;0.00;99.90;;;;;;5068673;28;20063;-38
2021/12/23 10:51:06;;;;;;;162.88;56.63;;;0.00;99.90;;;;;;5068619;28;20057;-38
2021/12/23 10:59:13;;;;;;;158.18;55.85;;;0.00;99.90;;;;;;5067812;28;20048;-39
2021/12/23 11:02:23;;;;;;;150.60;53.17;;;2.00;99.90;;;;;;5068256;28;20052;-38
2021/12/23 11:07:56;;;;;;;160.00;54.13;;;0.00;99.90;;;;;;5048061;28;20340;-38
2021/12/23 11:35:49;;;;;;;185.10;59.78;;;0.00;99.90;;;;;;5067718;28;20413;-41
2021/12/23 11:40:57;;;;;;;195.05;64.55;;;0.00;99.90;;;;;;5066200;28;20052;-39
2021/12/23 11:43:29;;;;;;;190.23;63.55;;;0.00;99.90;;;;;;5067353;28;20063;-39
2021/12/23 11:45:55;;;;;;;185.23;61.72;;;0.00;99.90;;;;;;5066573;28;20048;-39
2021/12/23 11:48:21;;;;;;;214.52;65.72;;;0.00;99.90;;;;;;5067060;28;20048;-38
2021/12/23 11:51:28;;;;;;;204.23;63.30;;;0.00;99.90;;;;;;5067408;28;20042;-39
2021/12/23 11:53:39;;;;;;;177.50;57.38;;;0.00;99.90;;;;;;5064870;28;20052;-39
2021/12/23 11:56:09;;;;;;;171.55;60.72;;;0.10;99.90;;;;;;5064767;28;20058;-39
2021/12/23 11:58:35;;;;;;;182.85;62.03;;;0.00;99.90;;;;;;5067281;28;20123;-42
2021/12/23 12:01:09;;;;;;;203.40;63.53;;;0.00;99.90;;;;;;5067043;28;20457;-44
2021/12/23 12:03:58;;;;;;;194.88;63.22;;;0.00;99.90;;;;;;5047641;28;20056;-43
2021/12/23 12:06:30;;;;;;;182.38;56.85;;;0.00;99.90;;;;;;5066951;28;20044;-44
2021/12/23 12:09:16;;;;;;;194.23;61.80;;;0.00;99.90;;;;;;5066462;28;20044;-44
2021/12/23 12:12:08;;;;;;;208.38;62.97;;;0.00;99.90;;;;;;5066707;28;20040;-43
2021/12/23 12:14:41;;;;;;;198.95;62.30;;;0.00;99.90;;;;;;5066356;28;20056;-42
2021/12/23 12:17:25;;;;;;;205.35;67.85;;;0.00;99.90;;;;;;5066802;28;20080;-44
2021/12/23 12:20:03;;;;;;;235.50;69.47;;;0.00;99.90;;;;;;5066776;28;20557;-43
2021/12/23 12:22:58;;;;;;;215.38;65.85;;;0.00;99.90;;;;;;5066802;28;20056;-43
2021/12/23 12:25:24;;;;;;;186.25;59.28;;;0.00;99.90;;;;;;5066779;28;20045;-43
2021/12/23 12:28:42;;;;;;;214.02;65.35;;;0.00;99.90;;;;;;5066456;28;20075;-43
2021/12/23 12:31:12;;;;;;;183.27;58.55;;;0.00;99.90;;;;;;5052820;28;20048;-43
2021/12/23 12:33:55;;;;;;;205.35;63.08;;;0.00;99.90;;;;;;5065157;28;20052;-42
2021/12/23 12:36:27;;;;;;;196.02;60.42;;;0.00;99.90;;;;;;5066996;28;20177;-39
2021/12/23 12:39:15;;;;;;;205.40;64.22;;;0.10;99.90;;;;;;5066173;28;20041;-39
2021/12/23 12:41:41;;;;;;;213.13;65.45;;;0.10;99.90;;;;;;5064318;28;20056;-39
2021/12/23 12:44:16;;;;;;;213.77;65.43;;;0.20;99.90;;;;;;5065712;28;20457;-39
2021/12/23 12:46:46;;;;;;;226.82;62.85;;;0.00;99.90;;;;;;5066277;28;20098;-39
2021/12/23 12:49:26;;;;;;;242.45;69.60;;;0.00;99.90;;;;;;5065398;28;20445;-40
2021/12/23 12:51:55;;;;;;;226.75;68.25;;;2.70;99.90;;;;;;5066253;28;20500;-40
2021/12/23 12:54:32;;;;;;;245.80;70.53;;;0.10;99.90;;;;;;5065908;28;20436;-40
2021/12/23 12:57:03;;;;;;;187.50;60.15;;;0.00;99.90;;;;;;5066071;28;20036;-39
2021/12/23 12:59:34;;;;;;;240.77;69.80;;;0.10;99.90;;;;;;5066211;28;20075;-39
2021/12/23 13:02:00;;;;;;;203.68;66.38;;;0.10;99.90;;;;;;5065538;28;20044;-39
2021/12/23 13:04:28;;;;;;;209.32;65.80;;;0.10;99.90;;;;;;5045360;28;20048;-40
2021/12/23 13:06:56;;;;;;;212.07;66.13;;;0.10;99.90;;;;;;5066685;28;20051;-40
2021/12/23 13:09:28;;;;;;;201.20;64.53;;;0.10;99.90;;;;;;5068272;28;20058;-40
2021/12/23 13:11:58;;;;;;;220.48;67.63;;;0.10;99.90;;;;;;5068970;28;20045;-40
2021/12/23 13:15:05;;;;;;;218.73;65.68;;;0.10;99.90;;;;;;5068374;28;20044;-40
2021/12/23 13:17:48;;;;;;;247.32;68.90;;;0.10;99.90;;;;;;5068741;28;20496;-40
2021/12/23 13:20:14;;;;;;;;;;;0.10;99.90;;;;;;5069084;28;20037;-40
2021/12/23 13:22:40;;;;;;;227.52;65.53;;;0.10;99.90;;;;;;5069014;28;19924;-40
2021/12/23 13:25:07;;;;;;;222.73;65.15;;;0.10;99.90;;;;;;5068879;28;20036;-41
2021/12/23 13:27:33;;;;;;;216.07;67.03;;;0.10;99.90;;;;;;5068855;28;20049;-40
2021/12/23 13:30:05;;;;;;;225.95;67.63;;;0.10;99.90;;;;;;5068949;28;20045;-40
2021/12/23 13:32:31;;;;;;;246.27;70.05;;;0.10;99.90;;;;;;5068400;28;20439;-40
2021/12/23 13:35:12;;;;;;;195.32;66.25;;;0.10;99.90;;;;;;5068696;28;20044;-41
2021/12/23 13:37:42;;;;;;;199.57;65.22;;;0.10;99.90;;;;;;5068812;28;20186;-40
2021/12/23 13:40:09;;;;;;;201.70;62.95;;;0.10;99.90;;;;;;5068688;28;20044;-40
2021/12/23 13:42:39;;;;;;;256.95;70.30;;;0.10;99.90;;;;;;5069224;28;20407;-40
2021/12/23 13:45:05;;;;;;;191.85;64.57;;;0.00;99.90;;;;;;5072772;28;20444;-40
2021/12/23 13:47:34;;;;;;;204.70;61.75;;;0.10;99.90;;;;;;5072893;28;20049;-40